sensor_id;sensor_type;location;lat;lon;timestamp;P1;durP1;ratioP1;P2;durP2;ratioP2
2001;SDS011;1003;48.002;7.788;2023-06-24T00:00:10;7.80;;;4.60;;
2001;SDS011;1003;48.002;7.788;2023-06-24T00:02:39;8.60;;;4.50;;
2001;SDS011;1003;48.002;7.788;2023-06-24T00:05:08;6.17;;;4.57;;
2001;SDS011;1003;48.002;7.788;2023-06-24T00:07:37;6.47;;;4.50;;
2001;SDS011;1003;48.002;7.788;2023-06-24T00:10:09;6.43;;;4.37;;
2001;SDS011;1003;48.002;7.788;2023-06-24T00:12:37;6.00;;;4.60;;
2001;SDS011;1003;48.002;7.788;2023-06-24T00:15:05;6.07;;;4.73;;
2001;SDS011;1003;48.002;7.788;2023-06-24T00:17:34;7.63;;;4.83;;
2001;SDS011;1003;48.002;7.788;2023-06-24T00:20:03;6.80;;;4.50;;
2001;SDS011;1003;48.002;7.788;2023-06-24T00:22:37;6.17;;;4.77;;
2001;SDS011;1003;48.002;7.788;2023-06-24T00:25:08;7.53;;;4.63;;
2001;SDS011;1003;48.002;7.788;2023-06-24T00:27:36;6.53;;;4.50;;
2001;SDS011;1003;48.002;7.788;2023-06-24T00:30:03;7.53;;;4.40;;
2001;SDS011;1003;48.002;7.788;2023-06-24T00:32:31;6.73;;;4.57;;
2001;SDS011;1003;48.002;7.788;2023-06-24T00:34:58;7.40;;;5.20;;
2001;SDS011;1003;48.002;7.788;2023-06-24T00:37:25;6.90;;;5.17;;
2001;SDS011;1003;48.002;7.788;2023-06-24T00:39:54;6.03;;;4.70;;
2001;SDS011;1003;48.002;7.788;2023-06-24T00:42:21;8.73;;;6.93;;
2001;SDS011;1003;48.002;7.788;2023-06-24T00:44:48;7.20;;;5.47;;
2001;SDS011;1003;48.002;7.788;2023-06-24T00:47:15;7.37;;;5.53;;
2001;SDS011;1003;48.002;7.788;2023-06-24T00:49:43;7.30;;;5.50;;
2001;SDS011;1003;48.002;7.788;2023-06-24T00:52:10;8.50;;;5.73;;
2001;SDS011;1003;48.002;7.788;2023-06-24T00:54:40;8.73;;;5.67;;
2001;SDS011;1003;48.002;7.788;2023-06-24T00:57:09;6.40;;;5.10;;
2001;SDS011;1003;48.002;7.788;2023-06-24T00:59:38;7.33;;;5.27;;
2001;SDS011;1003;48.002;7.788;2023-06-24T01:02:08;7.67;;;5.47;;
2001;SDS011;1003;48.002;7.788;2023-06-24T01:04:35;7.47;;;5.77;;
2001;SDS011;1003;48.002;7.788;2023-06-24T01:07:03;7.90;;;5.37;;
2001;SDS011;1003;48.002;7.788;2023-06-24T01:09:32;7.90;;;5.67;;
2001;SDS011;1003;48.002;7.788;2023-06-24T01:12:00;7.87;;;5.30;;
2001;SDS011;1003;48.002;7.788;2023-06-24T01:14:28;6.17;;;4.60;;
2001;SDS011;1003;48.002;7.788;2023-06-24T01:16:56;6.20;;;4.57;;
2001;SDS011;1003;48.002;7.788;2023-06-24T01:19:44;5.93;;;4.60;;
2001;SDS011;1003;48.002;7.788;2023-06-24T01:22:37;4.87;;;3.87;;
2001;SDS011;1003;48.002;7.788;2023-06-24T01:25:54;6.30;;;4.37;;
2001;SDS011;1003;48.002;7.788;2023-06-24T01:29:08;5.43;;;4.20;;
2001;SDS011;1003;48.002;7.788;2023-06-24T01:31:54;4.37;;;3.80;;
2001;SDS011;1003;48.002;7.788;2023-06-24T01:34:29;5.20;;;4.20;;
2001;SDS011;1003;48.002;7.788;2023-06-24T01:37:08;5.57;;;4.30;;
2001;SDS011;1003;48.002;7.788;2023-06-24T01:39:46;4.73;;;4.20;;
2001;SDS011;1003;48.002;7.788;2023-06-24T01:42:16;6.03;;;4.20;;
2001;SDS011;1003;48.002;7.788;2023-06-24T01:44:47;5.33;;;4.03;;
2001;SDS011;1003;48.002;7.788;2023-06-24T01:47:18;4.97;;;4.23;;
2001;SDS011;1003;48.002;7.788;2023-06-24T01:49:52;6.33;;;4.13;;
2001;SDS011;1003;48.002;7.788;2023-06-24T01:52:24;6.10;;;4.30;;
2001;SDS011;1003;48.002;7.788;2023-06-24T01:54:56;5.00;;;4.07;;
2001;SDS011;1003;48.002;7.788;2023-06-24T01:57:27;6.27;;;4.40;;
2001;SDS011;1003;48.002;7.788;2023-06-24T01:59:59;5.77;;;4.10;;
2001;SDS011;1003;48.002;7.788;2023-06-24T02:02:32;5.73;;;4.00;;
2001;SDS011;1003;48.002;7.788;2023-06-24T02:05:01;5.57;;;4.70;;
2001;SDS011;1003;48.002;7.788;2023-06-24T02:07:32;6.27;;;4.70;;
2001;SDS011;1003;48.002;7.788;2023-06-24T02:10:01;5.40;;;4.27;;
2001;SDS011;1003;48.002;7.788;2023-06-24T02:12:29;5.63;;;4.30;;
2001;SDS011;1003;48.002;7.788;2023-06-24T02:14:58;5.63;;;4.30;;
2001;SDS011;1003;48.002;7.788;2023-06-24T02:17:29;5.30;;;3.97;;
2001;SDS011;1003;48.002;7.788;2023-06-24T02:19:58;6.83;;;4.40;;
2001;SDS011;1003;48.002;7.788;2023-06-24T02:22:26;5.10;;;4.17;;
2001;SDS011;1003;48.002;7.788;2023-06-24T02:24:54;5.70;;;4.30;;
2001;SDS011;1003;48.002;7.788;2023-06-24T02:27:22;4.83;;;4.00;;
2001;SDS011;1003;48.002;7.788;2023-06-24T02:29:51;6.47;;;4.30;;
2001;SDS011;1003;48.002;7.788;2023-06-24T02:32:19;5.87;;;4.03;;
2001;SDS011;1003;48.002;7.788;2023-06-24T02:34:48;4.97;;;4.20;;
2001;SDS011;1003;48.002;7.788;2023-06-24T02:37:15;7.07;;;4.60;;
2001;SDS011;1003;48.002;7.788;2023-06-24T02:39:42;4.67;;;3.80;;
2001;SDS011;1003;48.002;7.788;2023-06-24T02:42:09;5.80;;;3.93;;
2001;SDS011;1003;48.002;7.788;2023-06-24T02:44:37;6.63;;;4.23;;
2001;SDS011;1003;48.002;7.788;2023-06-24T02:47:05;7.03;;;4.30;;
2001;SDS011;1003;48.002;7.788;2023-06-24T02:49:38;6.60;;;4.40;;
2001;SDS011;1003;48.002;7.788;2023-06-24T02:52:09;5.83;;;4.50;;
2001;SDS011;1003;48.002;7.788;2023-06-24T02:54:36;6.70;;;4.53;;
2001;SDS011;1003;48.002;7.788;2023-06-24T02:57:05;5.07;;;4.20;;
2001;SDS011;1003;48.002;7.788;2023-06-24T02:59:34;6.47;;;4.47;;
2001;SDS011;1003;48.002;7.788;2023-06-24T03:02:02;6.20;;;4.13;;
2001;SDS011;1003;48.002;7.788;2023-06-24T03:04:30;5.20;;;4.17;;
2001;SDS011;1003;48.002;7.788;2023-06-24T03:06:58;7.73;;;4.70;;
2001;SDS011;1003;48.002;7.788;2023-06-24T03:09:31;5.90;;;4.50;;
2001;SDS011;1003;48.002;7.788;2023-06-24T03:12:00;5.73;;;4.53;;
2001;SDS011;1003;48.002;7.788;2023-06-24T03:14:28;7.47;;;4.97;;
2001;SDS011;1003;48.002;7.788;2023-06-24T03:19:31;6.50;;;4.50;;
2001;SDS011;1003;48.002;7.788;2023-06-24T03:21:58;6.80;;;4.40;;
2001;SDS011;1003;48.002;7.788;2023-06-24T03:24:25;6.07;;;4.37;;
2001;SDS011;1003;48.002;7.788;2023-06-24T03:26:53;6.60;;;4.60;;
2001;SDS011;1003;48.002;7.788;2023-06-24T03:29:22;5.53;;;4.17;;
2001;SDS011;1003;48.002;7.788;2023-06-24T03:31:49;7.47;;;4.80;;
2001;SDS011;1003;48.002;7.788;2023-06-24T03:34:16;6.93;;;4.70;;
2001;SDS011;1003;48.002;7.788;2023-06-24T03:36:43;5.37;;;4.20;;
2001;SDS011;1003;48.002;7.788;2023-06-24T03:39:11;7.13;;;4.70;;
2001;SDS011;1003;48.002;7.788;2023-06-24T03:41:38;6.80;;;4.50;;
2001;SDS011;1003;48.002;7.788;2023-06-24T03:44:07;7.60;;;4.80;;
2001;SDS011;1003;48.002;7.788;2023-06-24T03:46:34;6.27;;;4.50;;
2001;SDS011;1003;48.002;7.788;2023-06-24T03:49:01;6.07;;;4.00;;
2001;SDS011;1003;48.002;7.788;2023-06-24T03:51:28;6.10;;;4.47;;
2001;SDS011;1003;48.002;7.788;2023-06-24T03:53:56;6.70;;;4.70;;
2001;SDS011;1003;48.002;7.788;2023-06-24T03:56:23;4.83;;;4.23;;
2001;SDS011;1003;48.002;7.788;2023-06-24T03:58:50;4.93;;;4.00;;
2001;SDS011;1003;48.002;7.788;2023-06-24T04:01:19;7.33;;;4.47;;
2001;SDS011;1003;48.002;7.788;2023-06-24T04:03:46;5.50;;;4.47;;
2001;SDS011;1003;48.002;7.788;2023-06-24T04:06:13;5.73;;;4.33;;
2001;SDS011;1003;48.002;7.788;2023-06-24T04:08:40;5.47;;;4.47;;
2001;SDS011;1003;48.002;7.788;2023-06-24T04:11:08;8.17;;;4.70;;
2001;SDS011;1003;48.002;7.788;2023-06-24T04:13:36;6.30;;;5.07;;
2001;SDS011;1003;48.002;7.788;2023-06-24T04:16:04;6.07;;;4.13;;
2001;SDS011;1003;48.002;7.788;2023-06-24T04:18:32;5.57;;;4.27;;
2001;SDS011;1003;48.002;7.788;2023-06-24T04:21:02;5.03;;;4.23;;
2001;SDS011;1003;48.002;7.788;2023-06-24T04:23:30;5.93;;;4.50;;
2001;SDS011;1003;48.002;7.788;2023-06-24T04:25:57;7.00;;;4.80;;
2001;SDS011;1003;48.002;7.788;2023-06-24T04:28:24;6.37;;;4.57;;
2001;SDS011;1003;48.002;7.788;2023-06-24T04:30:54;5.83;;;4.40;;
2001;SDS011;1003;48.002;7.788;2023-06-24T04:33:21;6.63;;;4.70;;
2001;SDS011;1003;48.002;7.788;2023-06-24T04:35:49;6.63;;;4.73;;
2001;SDS011;1003;48.002;7.788;2023-06-24T04:38:17;7.10;;;4.83;;
2001;SDS011;1003;48.002;7.788;2023-06-24T04:40:44;5.57;;;4.40;;
2001;SDS011;1003;48.002;7.788;2023-06-24T04:43:11;6.20;;;4.63;;
2001;SDS011;1003;48.002;7.788;2023-06-24T04:45:38;5.20;;;4.47;;
2001;SDS011;1003;48.002;7.788;2023-06-24T04:48:05;5.87;;;4.50;;
2001;SDS011;1003;48.002;7.788;2023-06-24T04:50:32;7.23;;;4.33;;
2001;SDS011;1003;48.002;7.788;2023-06-24T04:53:01;6.07;;;4.30;;
2001;SDS011;1003;48.002;7.788;2023-06-24T04:55:28;6.57;;;4.27;;
2001;SDS011;1003;48.002;7.788;2023-06-24T04:57:56;7.43;;;4.60;;
2001;SDS011;1003;48.002;7.788;2023-06-24T05:00:23;7.27;;;4.00;;
2001;SDS011;1003;48.002;7.788;2023-06-24T05:02:50;5.43;;;4.30;;
2001;SDS011;1003;48.002;7.788;2023-06-24T05:05:17;6.00;;;4.30;;
2001;SDS011;1003;48.002;7.788;2023-06-24T05:07:45;6.97;;;4.60;;
2001;SDS011;1003;48.002;7.788;2023-06-24T05:10:14;6.13;;;4.17;;
2001;SDS011;1003;48.002;7.788;2023-06-24T05:12:41;6.13;;;4.20;;
2001;SDS011;1003;48.002;7.788;2023-06-24T05:15:10;4.87;;;4.10;;
2001;SDS011;1003;48.002;7.788;2023-06-24T05:17:37;5.20;;;4.03;;
2001;SDS011;1003;48.002;7.788;2023-06-24T05:20:06;5.40;;;3.83;;
2001;SDS011;1003;48.002;7.788;2023-06-24T05:22:34;5.53;;;3.97;;
2001;SDS011;1003;48.002;7.788;2023-06-24T05:25:02;5.73;;;4.00;;
2001;SDS011;1003;48.002;7.788;2023-06-24T05:27:30;5.17;;;3.90;;
2001;SDS011;1003;48.002;7.788;2023-06-24T05:29:57;4.00;;;3.57;;
2001;SDS011;1003;48.002;7.788;2023-06-24T05:32:24;5.40;;;4.03;;
2001;SDS011;1003;48.002;7.788;2023-06-24T05:34:52;4.03;;;3.63;;
2001;SDS011;1003;48.002;7.788;2023-06-24T05:37:19;5.10;;;3.93;;
2001;SDS011;1003;48.002;7.788;2023-06-24T05:39:46;5.20;;;3.70;;
2001;SDS011;1003;48.002;7.788;2023-06-24T05:42:13;4.60;;;3.70;;
2001;SDS011;1003;48.002;7.788;2023-06-24T05:44:44;5.07;;;3.97;;
2001;SDS011;1003;48.002;7.788;2023-06-24T05:47:11;5.17;;;4.47;;
2001;SDS011;1003;48.002;7.788;2023-06-24T05:49:38;4.93;;;3.87;;
2001;SDS011;1003;48.002;7.788;2023-06-24T05:52:05;4.70;;;3.80;;
2001;SDS011;1003;48.002;7.788;2023-06-24T05:54:33;4.80;;;3.80;;
2001;SDS011;1003;48.002;7.788;2023-06-24T05:57:00;4.90;;;4.20;;
2001;SDS011;1003;48.002;7.788;2023-06-24T05:59:31;4.77;;;4.07;;
2001;SDS011;1003;48.002;7.788;2023-06-24T06:01:59;4.43;;;4.00;;
2001;SDS011;1003;48.002;7.788;2023-06-24T06:04:29;5.23;;;4.13;;
2001;SDS011;1003;48.002;7.788;2023-06-24T06:06:56;4.40;;;3.90;;
2001;SDS011;1003;48.002;7.788;2023-06-24T06:09:23;6.13;;;4.23;;
2001;SDS011;1003;48.002;7.788;2023-06-24T06:11:50;5.57;;;4.13;;
2001;SDS011;1003;48.002;7.788;2023-06-24T06:14:17;6.60;;;4.20;;
2001;SDS011;1003;48.002;7.788;2023-06-24T06:16:44;6.10;;;4.10;;
2001;SDS011;1003;48.002;7.788;2023-06-24T06:19:13;4.47;;;4.00;;
2001;SDS011;1003;48.002;7.788;2023-06-24T06:21:40;4.67;;;3.73;;
2001;SDS011;1003;48.002;7.788;2023-06-24T06:24:07;4.60;;;4.20;;
2001;SDS011;1003;48.002;7.788;2023-06-24T06:26:34;6.13;;;4.20;;
2001;SDS011;1003;48.002;7.788;2023-06-24T06:29:06;4.37;;;3.80;;
2001;SDS011;1003;48.002;7.788;2023-06-24T06:31:33;4.27;;;3.87;;
2001;SDS011;1003;48.002;7.788;2023-06-24T06:34:00;5.63;;;3.90;;
2001;SDS011;1003;48.002;7.788;2023-06-24T06:36:29;4.47;;;3.93;;
2001;SDS011;1003;48.002;7.788;2023-06-24T06:38:56;6.80;;;4.40;;
2001;SDS011;1003;48.002;7.788;2023-06-24T06:41:23;4.73;;;3.77;;
2001;SDS011;1003;48.002;7.788;2023-06-24T06:43:50;6.00;;;4.00;;
2001;SDS011;1003;48.002;7.788;2023-06-24T06:46:17;5.27;;;3.77;;
2001;SDS011;1003;48.002;7.788;2023-06-24T06:48:45;4.20;;;3.80;;
2001;SDS011;1003;48.002;7.788;2023-06-24T06:51:12;4.70;;;3.93;;
2001;SDS011;1003;48.002;7.788;2023-06-24T06:53:40;4.37;;;3.97;;
2001;SDS011;1003;48.002;7.788;2023-06-24T06:56:07;4.40;;;3.60;;
2001;SDS011;1003;48.002;7.788;2023-06-24T06:58:34;5.57;;;4.17;;
2001;SDS011;1003;48.002;7.788;2023-06-24T07:01:03;4.43;;;3.43;;
2001;SDS011;1003;48.002;7.788;2023-06-24T07:03:31;4.40;;;3.70;;
2001;SDS011;1003;48.002;7.788;2023-06-24T07:05:57;5.13;;;3.90;;
2001;SDS011;1003;48.002;7.788;2023-06-24T07:08:25;4.83;;;3.93;;
2001;SDS011;1003;48.002;7.788;2023-06-24T07:10:53;6.23;;;3.73;;
2001;SDS011;1003;48.002;7.788;2023-06-24T07:13:20;4.20;;;3.80;;
2001;SDS011;1003;48.002;7.788;2023-06-24T07:15:47;3.87;;;3.47;;
2001;SDS011;1003;48.002;7.788;2023-06-24T07:18:14;3.67;;;3.37;;
2001;SDS011;1003;48.002;7.788;2023-06-24T07:20:41;4.60;;;3.47;;
2001;SDS011;1003;48.002;7.788;2023-06-24T07:23:08;8.50;;;4.17;;
2001;SDS011;1003;48.002;7.788;2023-06-24T07:25:36;4.63;;;3.60;;
2001;SDS011;1003;48.002;7.788;2023-06-24T07:28:05;4.10;;;3.70;;
2001;SDS011;1003;48.002;7.788;2023-06-24T07:30:32;4.17;;;3.63;;
2001;SDS011;1003;48.002;7.788;2023-06-24T07:32:59;3.87;;;3.47;;
2001;SDS011;1003;48.002;7.788;2023-06-24T07:35:30;3.87;;;3.40;;
2001;SDS011;1003;48.002;7.788;2023-06-24T07:37:57;5.77;;;3.80;;
2001;SDS011;1003;48.002;7.788;2023-06-24T07:40:24;4.87;;;3.60;;
2001;SDS011;1003;48.002;7.788;2023-06-24T07:42:53;4.40;;;3.50;;
2001;SDS011;1003;48.002;7.788;2023-06-24T07:45:21;3.87;;;3.57;;
2001;SDS011;1003;48.002;7.788;2023-06-24T07:47:50;4.20;;;3.50;;
2001;SDS011;1003;48.002;7.788;2023-06-24T07:50:17;4.43;;;3.43;;
2001;SDS011;1003;48.002;7.788;2023-06-24T07:52:44;3.97;;;3.43;;
2001;SDS011;1003;48.002;7.788;2023-06-24T07:55:11;5.27;;;3.67;;
2001;SDS011;1003;48.002;7.788;2023-06-24T07:57:38;5.23;;;3.70;;
2001;SDS011;1003;48.002;7.788;2023-06-24T08:00:06;4.20;;;3.47;;
2001;SDS011;1003;48.002;7.788;2023-06-24T08:02:37;4.37;;;3.47;;
2001;SDS011;1003;48.002;7.788;2023-06-24T08:05:04;5.43;;;3.57;;
2001;SDS011;1003;48.002;7.788;2023-06-24T08:07:32;4.13;;;3.60;;
2001;SDS011;1003;48.002;7.788;2023-06-24T08:09:59;4.10;;;3.70;;
2001;SDS011;1003;48.002;7.788;2023-06-24T08:12:26;3.83;;;3.53;;
2001;SDS011;1003;48.002;7.788;2023-06-24T08:14:53;4.77;;;3.77;;
2001;SDS011;1003;48.002;7.788;2023-06-24T08:17:20;4.20;;;3.70;;
2001;SDS011;1003;48.002;7.788;2023-06-24T08:19:49;4.60;;;3.77;;
2001;SDS011;1003;48.002;7.788;2023-06-24T08:22:16;3.57;;;3.27;;
2001;SDS011;1003;48.002;7.788;2023-06-24T08:24:43;4.07;;;3.30;;
2001;SDS011;1003;48.002;7.788;2023-06-24T08:27:10;5.07;;;3.70;;
2001;SDS011;1003;48.002;7.788;2023-06-24T08:36:04;3.90;;;3.50;;
2001;SDS011;1003;48.002;7.788;2023-06-24T08:38:31;4.70;;;3.67;;
2001;SDS011;1003;48.002;7.788;2023-06-24T08:40:58;4.37;;;3.97;;
2001;SDS011;1003;48.002;7.788;2023-06-24T08:43:25;3.83;;;3.47;;
2001;SDS011;1003;48.002;7.788;2023-06-24T08:45:53;4.23;;;3.60;;
2001;SDS011;1003;48.002;7.788;2023-06-24T08:48:21;3.80;;;3.40;;
2001;SDS011;1003;48.002;7.788;2023-06-24T08:50:50;6.57;;;4.00;;
2001;SDS011;1003;48.002;7.788;2023-06-24T08:53:25;4.63;;;3.80;;
2001;SDS011;1003;48.002;7.788;2023-06-24T08:55:53;4.00;;;3.20;;
2001;SDS011;1003;48.002;7.788;2023-06-24T08:58:23;3.57;;;3.20;;
2001;SDS011;1003;48.002;7.788;2023-06-24T09:00:50;4.23;;;3.60;;
2001;SDS011;1003;48.002;7.788;2023-06-24T09:03:18;4.37;;;3.97;;
2001;SDS011;1003;48.002;7.788;2023-06-24T09:05:45;5.13;;;3.63;;
2001;SDS011;1003;48.002;7.788;2023-06-24T09:08:13;5.50;;;3.53;;
2001;SDS011;1003;48.002;7.788;2023-06-24T09:10:42;5.23;;;4.03;;
2001;SDS011;1003;48.002;7.788;2023-06-24T09:13:09;4.30;;;3.90;;
2001;SDS011;1003;48.002;7.788;2023-06-24T09:15:37;4.43;;;3.60;;
2001;SDS011;1003;48.002;7.788;2023-06-24T09:18:04;4.20;;;3.73;;
2001;SDS011;1003;48.002;7.788;2023-06-24T09:20:32;3.70;;;3.40;;
2001;SDS011;1003;48.002;7.788;2023-06-24T09:23:04;4.30;;;3.80;;
2001;SDS011;1003;48.002;7.788;2023-06-24T09:25:31;5.40;;;3.50;;
2001;SDS011;1003;48.002;7.788;2023-06-24T09:28:00;4.83;;;3.87;;
2001;SDS011;1003;48.002;7.788;2023-06-24T09:30:28;4.60;;;4.00;;
2001;SDS011;1003;48.002;7.788;2023-06-24T09:32:55;5.43;;;3.93;;
2001;SDS011;1003;48.002;7.788;2023-06-24T09:35:23;4.03;;;3.50;;
2001;SDS011;1003;48.002;7.788;2023-06-24T09:37:52;4.73;;;3.73;;
2001;SDS011;1003;48.002;7.788;2023-06-24T09:40:21;4.23;;;3.83;;
2001;SDS011;1003;48.002;7.788;2023-06-24T09:42:56;4.50;;;3.60;;
2001;SDS011;1003;48.002;7.788;2023-06-24T09:45:27;4.40;;;3.67;;
2001;SDS011;1003;48.002;7.788;2023-06-24T09:47:56;4.13;;;3.50;;
2001;SDS011;1003;48.002;7.788;2023-06-24T09:50:24;4.23;;;3.13;;
2001;SDS011;1003;48.002;7.788;2023-06-24T09:52:51;4.33;;;3.37;;
2001;SDS011;1003;48.002;7.788;2023-06-24T09:55:23;3.97;;;3.53;;
2001;SDS011;1003;48.002;7.788;2023-06-24T09:57:51;4.83;;;3.73;;
2001;SDS011;1003;48.002;7.788;2023-06-24T10:00:20;5.70;;;3.80;;
2001;SDS011;1003;48.002;7.788;2023-06-24T10:02:52;5.50;;;4.27;;
2001;SDS011;1003;48.002;7.788;2023-06-24T10:05:21;4.83;;;3.83;;
2001;SDS011;1003;48.002;7.788;2023-06-24T10:07:48;3.90;;;3.53;;
2001;SDS011;1003;48.002;7.788;2023-06-24T10:10:15;5.17;;;3.73;;
2001;SDS011;1003;48.002;7.788;2023-06-24T10:12:42;4.13;;;3.67;;
2001;SDS011;1003;48.002;7.788;2023-06-24T10:15:10;5.40;;;3.97;;
2001;SDS011;1003;48.002;7.788;2023-06-24T10:17:37;5.73;;;3.87;;
2001;SDS011;1003;48.002;7.788;2023-06-24T10:20:06;4.63;;;4.13;;
2001;SDS011;1003;48.002;7.788;2023-06-24T10:22:34;4.97;;;3.90;;
2001;SDS011;1003;48.002;7.788;2023-06-24T10:25:04;4.73;;;3.87;;
2001;SDS011;1003;48.002;7.788;2023-06-24T10:27:38;4.43;;;4.03;;
2001;SDS011;1003;48.002;7.788;2023-06-24T10:30:07;4.87;;;3.57;;
2001;SDS011;1003;48.002;7.788;2023-06-24T10:32:42;4.33;;;3.70;;
2001;SDS011;1003;48.002;7.788;2023-06-24T10:35:22;4.37;;;3.70;;
2001;SDS011;1003;48.002;7.788;2023-06-24T10:37:54;4.20;;;3.80;;
2001;SDS011;1003;48.002;7.788;2023-06-24T10:45:56;4.60;;;3.93;;
2001;SDS011;1003;48.002;7.788;2023-06-24T10:48:24;4.13;;;3.73;;
2001;SDS011;1003;48.002;7.788;2023-06-24T10:50:52;4.10;;;3.60;;
2001;SDS011;1003;48.002;7.788;2023-06-24T10:53:21;5.50;;;3.80;;
2001;SDS011;1003;48.002;7.788;2023-06-24T10:55:48;5.17;;;3.93;;
2001;SDS011;1003;48.002;7.788;2023-06-24T10:58:16;5.67;;;3.67;;
2001;SDS011;1003;48.002;7.788;2023-06-24T11:00:43;4.27;;;3.60;;
2001;SDS011;1003;48.002;7.788;2023-06-24T11:03:12;3.97;;;3.57;;
2001;SDS011;1003;48.002;7.788;2023-06-24T11:05:41;3.70;;;3.30;;
2001;SDS011;1003;48.002;7.788;2023-06-24T11:08:11;4.07;;;3.67;;
2001;SDS011;1003;48.002;7.788;2023-06-24T11:10:41;4.33;;;3.87;;
2001;SDS011;1003;48.002;7.788;2023-06-24T11:13:10;3.57;;;3.27;;
2001;SDS011;1003;48.002;7.788;2023-06-24T11:15:38;3.37;;;3.07;;
2001;SDS011;1003;48.002;7.788;2023-06-24T11:18:07;4.23;;;3.50;;
2001;SDS011;1003;48.002;7.788;2023-06-24T11:20:36;3.30;;;3.00;;
2001;SDS011;1003;48.002;7.788;2023-06-24T11:23:06;3.87;;;3.40;;
2001;SDS011;1003;48.002;7.788;2023-06-24T11:25:39;4.23;;;3.80;;
2001;SDS011;1003;48.002;7.788;2023-06-24T11:28:14;4.73;;;3.47;;
2001;SDS011;1003;48.002;7.788;2023-06-24T11:30:44;3.53;;;3.20;;
2001;SDS011;1003;48.002;7.788;2023-06-24T11:33:11;4.63;;;3.57;;
2001;SDS011;1003;48.002;7.788;2023-06-24T11:35:38;3.83;;;3.40;;
2001;SDS011;1003;48.002;7.788;2023-06-24T11:38:05;3.90;;;3.10;;
2001;SDS011;1003;48.002;7.788;2023-06-24T11:40:33;3.70;;;3.07;;
2001;SDS011;1003;48.002;7.788;2023-06-24T11:43:02;5.23;;;3.97;;
2001;SDS011;1003;48.002;7.788;2023-06-24T11:45:30;3.40;;;3.10;;
2001;SDS011;1003;48.002;7.788;2023-06-24T11:48:01;5.47;;;3.50;;
2001;SDS011;1003;48.002;7.788;2023-06-24T11:50:33;3.47;;;3.17;;
2001;SDS011;1003;48.002;7.788;2023-06-24T11:53:02;3.90;;;3.20;;
2001;SDS011;1003;48.002;7.788;2023-06-24T11:55:30;3.63;;;3.00;;
2001;SDS011;1003;48.002;7.788;2023-06-24T11:57:58;4.07;;;3.40;;
2001;SDS011;1003;48.002;7.788;2023-06-24T12:00:32;3.47;;;3.17;;
2001;SDS011;1003;48.002;7.788;2023-06-24T12:03:03;3.63;;;3.10;;
2001;SDS011;1003;48.002;7.788;2023-06-24T12:05:33;3.47;;;3.17;;
2001;SDS011;1003;48.002;7.788;2023-06-24T12:08:02;3.47;;;3.10;;
2001;SDS011;1003;48.002;7.788;2023-06-24T12:10:32;5.23;;;3.07;;
2001;SDS011;1003;48.002;7.788;2023-06-24T12:13:01;4.03;;;3.00;;
2001;SDS011;1003;48.002;7.788;2023-06-24T12:15:32;3.77;;;3.37;;
2001;SDS011;1003;48.002;7.788;2023-06-24T12:18:00;3.63;;;3.10;;
2001;SDS011;1003;48.002;7.788;2023-06-24T12:20:28;3.73;;;3.20;;
2001;SDS011;1003;48.002;7.788;2023-06-24T12:22:57;3.47;;;3.17;;
2001;SDS011;1003;48.002;7.788;2023-06-24T12:25:25;3.73;;;3.10;;
2001;SDS011;1003;48.002;7.788;2023-06-24T12:27:52;3.87;;;3.00;;
2001;SDS011;1003;48.002;7.788;2023-06-24T12:30:19;3.50;;;2.90;;
2001;SDS011;1003;48.002;7.788;2023-06-24T12:32:49;3.27;;;2.93;;
2001;SDS011;1003;48.002;7.788;2023-06-24T12:35:16;3.67;;;3.10;;
2001;SDS011;1003;48.002;7.788;2023-06-24T12:37:44;5.03;;;3.30;;
2001;SDS011;1003;48.002;7.788;2023-06-24T12:40:11;3.83;;;2.80;;
2001;SDS011;1003;48.002;7.788;2023-06-24T12:42:38;3.33;;;3.00;;
2001;SDS011;1003;48.002;7.788;2023-06-24T12:45:06;3.17;;;2.80;;
2001;SDS011;1003;48.002;7.788;2023-06-24T12:47:34;3.40;;;3.10;;
2001;SDS011;1003;48.002;7.788;2023-06-24T12:50:03;3.03;;;2.73;;
2001;SDS011;1003;48.002;7.788;2023-06-24T12:52:31;3.60;;;2.83;;
2001;SDS011;1003;48.002;7.788;2023-06-24T12:54:59;3.07;;;2.70;;
2001;SDS011;1003;48.002;7.788;2023-06-24T12:57:26;5.20;;;2.70;;
2001;SDS011;1003;48.002;7.788;2023-06-24T12:59:53;3.30;;;2.90;;
2001;SDS011;1003;48.002;7.788;2023-06-24T13:02:20;2.90;;;2.50;;
2001;SDS011;1003;48.002;7.788;2023-06-24T13:04:47;3.57;;;2.87;;
2001;SDS011;1003;48.002;7.788;2023-06-24T13:07:16;3.10;;;2.80;;
2001;SDS011;1003;48.002;7.788;2023-06-24T13:09:42;3.80;;;2.77;;
2001;SDS011;1003;48.002;7.788;2023-06-24T13:12:09;3.23;;;2.90;;
2001;SDS011;1003;48.002;7.788;2023-06-24T13:14:37;3.17;;;2.70;;
2001;SDS011;1003;48.002;7.788;2023-06-24T13:17:04;3.10;;;2.80;;
2001;SDS011;1003;48.002;7.788;2023-06-24T13:19:31;3.33;;;3.03;;
2001;SDS011;1003;48.002;7.788;2023-06-24T13:21:58;3.27;;;2.80;;
2001;SDS011;1003;48.002;7.788;2023-06-24T13:24:27;3.30;;;2.70;;
2001;SDS011;1003;48.002;7.788;2023-06-24T13:26:54;3.33;;;2.87;;
2001;SDS011;1003;48.002;7.788;2023-06-24T13:29:21;3.10;;;2.80;;
2001;SDS011;1003;48.002;7.788;2023-06-24T13:31:48;3.10;;;2.60;;
2001;SDS011;1003;48.002;7.788;2023-06-24T13:34:15;2.80;;;2.60;;
2001;SDS011;1003;48.002;7.788;2023-06-24T13:36:43;4.30;;;2.70;;
2001;SDS011;1003;48.002;7.788;2023-06-24T13:39:10;3.20;;;2.90;;
2001;SDS011;1003;48.002;7.788;2023-06-24T13:41:39;3.00;;;2.80;;
2001;SDS011;1003;48.002;7.788;2023-06-24T13:44:06;3.20;;;2.90;;
2001;SDS011;1003;48.002;7.788;2023-06-24T13:46:33;3.00;;;2.77;;
2001;SDS011;1003;48.002;7.788;2023-06-24T13:49:00;3.43;;;2.60;;
2001;SDS011;1003;48.002;7.788;2023-06-24T13:51:28;3.07;;;2.77;;
2001;SDS011;1003;48.002;7.788;2023-06-24T13:53:55;3.00;;;2.70;;
2001;SDS011;1003;48.002;7.788;2023-06-24T13:56:22;2.93;;;2.63;;
2001;SDS011;1003;48.002;7.788;2023-06-24T13:58:52;2.83;;;2.60;;
2001;SDS011;1003;48.002;7.788;2023-06-24T14:01:20;3.27;;;2.70;;
2001;SDS011;1003;48.002;7.788;2023-06-24T14:03:49;4.27;;;3.17;;
2001;SDS011;1003;48.002;7.788;2023-06-24T14:06:18;3.20;;;2.90;;
2001;SDS011;1003;48.002;7.788;2023-06-24T14:08:48;2.93;;;2.57;;
2001;SDS011;1003;48.002;7.788;2023-06-24T14:11:16;3.33;;;2.70;;
2001;SDS011;1003;48.002;7.788;2023-06-24T14:13:44;3.47;;;3.00;;
2001;SDS011;1003;48.002;7.788;2023-06-24T14:16:13;3.27;;;2.90;;
2001;SDS011;1003;48.002;7.788;2023-06-24T14:18:40;3.27;;;2.70;;
2001;SDS011;1003;48.002;7.788;2023-06-24T14:21:08;3.20;;;2.90;;
2001;SDS011;1003;48.002;7.788;2023-06-24T14:23:35;3.30;;;2.93;;
2001;SDS011;1003;48.002;7.788;2023-06-24T14:26:02;2.90;;;2.60;;
2001;SDS011;1003;48.002;7.788;2023-06-24T14:28:30;4.00;;;2.67;;
2001;SDS011;1003;48.002;7.788;2023-06-24T14:30:57;3.20;;;2.90;;
2001;SDS011;1003;48.002;7.788;2023-06-24T14:33:25;3.87;;;2.90;;
2001;SDS011;1003;48.002;7.788;2023-06-24T14:35:52;3.37;;;2.60;;
2001;SDS011;1003;48.002;7.788;2023-06-24T14:38:20;4.37;;;3.13;;
2001;SDS011;1003;48.002;7.788;2023-06-24T14:40:47;3.30;;;2.70;;
2001;SDS011;1003;48.002;7.788;2023-06-24T14:43:14;3.13;;;2.83;;
2001;SDS011;1003;48.002;7.788;2023-06-24T14:45:41;3.00;;;2.70;;
2001;SDS011;1003;48.002;7.788;2023-06-24T14:48:08;3.03;;;2.70;;
2001;SDS011;1003;48.002;7.788;2023-06-24T14:50:37;3.07;;;2.50;;
2001;SDS011;1003;48.002;7.788;2023-06-24T14:53:04;2.90;;;2.60;;
2001;SDS011;1003;48.002;7.788;2023-06-24T14:55:32;3.00;;;2.70;;
2001;SDS011;1003;48.002;7.788;2023-06-24T14:57:59;3.00;;;2.80;;
2001;SDS011;1003;48.002;7.788;2023-06-24T15:00:26;4.90;;;3.30;;
2001;SDS011;1003;48.002;7.788;2023-06-24T15:02:53;3.70;;;2.80;;
2001;SDS011;1003;48.002;7.788;2023-06-24T15:05:20;2.77;;;2.57;;
2001;SDS011;1003;48.002;7.788;2023-06-24T15:07:49;3.03;;;2.73;;
2001;SDS011;1003;48.002;7.788;2023-06-24T15:10:16;4.10;;;2.80;;
2001;SDS011;1003;48.002;7.788;2023-06-24T15:12:43;2.97;;;2.67;;
2001;SDS011;1003;48.002;7.788;2023-06-24T15:15:10;4.00;;;2.90;;
2001;SDS011;1003;48.002;7.788;2023-06-24T15:17:37;3.80;;;2.57;;
2001;SDS011;1003;48.002;7.788;2023-06-24T15:20:10;2.97;;;2.70;;
2001;SDS011;1003;48.002;7.788;2023-06-24T15:22:38;3.27;;;2.97;;
2001;SDS011;1003;48.002;7.788;2023-06-24T15:25:07;3.90;;;2.70;;
2001;SDS011;1003;48.002;7.788;2023-06-24T15:27:35;3.63;;;3.03;;
2001;SDS011;1003;48.002;7.788;2023-06-24T15:30:02;3.63;;;3.00;;
2001;SDS011;1003;48.002;7.788;2023-06-24T15:32:29;2.80;;;2.60;;
2001;SDS011;1003;48.002;7.788;2023-06-24T15:34:56;5.03;;;2.90;;
2001;SDS011;1003;48.002;7.788;2023-06-24T15:37:23;3.13;;;2.80;;